sensor_id;sensor_type;location;lat;lon;timestamp;P1;durP1;ratioP1;P2;durP2;ratioP2
23628;SDS011;11991;57.150;-2.134;2023-03-20T00:02:18;1.10;;;0.70;;
23628;SDS011;11991;57.150;-2.134;2023-03-20T00:04:46;0.77;;;0.57;;
23628;SDS011;11991;57.150;-2.134;2023-03-20T00:07:14;2.10;;;0.80;;
23628;SDS011;11991;57.150;-2.134;2023-03-20T00:09:41;0.82;;;0.60;;
23628;SDS011;11991;57.150;-2.134;2023-03-20T00:12:13;0.63;;;0.60;;
23628;SDS011;11991;57.150;-2.134;2023-03-20T00:14:43;1.73;;;0.63;;
23628;SDS011;11991;57.150;-2.134;2023-03-20T00:17:12;1.15;;;0.60;;
23628;SDS011;11991;57.150;-2.134;2023-03-20T00:19:43;0.80;;;0.80;;
23628;SDS011;11991;57.150;-2.134;2023-03-20T00:22:12;1.58;;;0.70;;
23628;SDS011;11991;57.150;-2.134;2023-03-20T00:24:39;1.38;;;0.80;;
23628;SDS011;11991;57.150;-2.134;2023-03-20T00:27:08;0.80;;;0.50;;
23628;SDS011;11991;57.150;-2.134;2023-03-20T00:29:39;0.70;;;0.70;;
23628;SDS011;11991;57.150;-2.134;2023-03-20T00:32:09;0.70;;;0.63;;
23628;SDS011;11991;57.150;-2.134;2023-03-20T00:34:38;0.95;;;0.73;;
23628;SDS011;11991;57.150;-2.134;2023-03-20T00:37:07;0.82;;;0.50;;
23628;SDS011;11991;57.150;-2.134;2023-03-20T00:39:37;0.70;;;0.70;;
23628;SDS011;11991;57.150;-2.134;2023-03-20T00:42:05;0.63;;;0.45;;
23628;SDS011;11991;57.150;-2.134;2023-03-20T00:44:35;1.33;;;0.60;;
23628;SDS011;11991;57.150;-2.134;2023-03-20T00:47:12;0.60;;;0.60;;
23628;SDS011;11991;57.150;-2.134;2023-03-20T00:49:45;1.15;;;0.70;;
23628;SDS011;11991;57.150;-2.134;2023-03-20T00:52:14;0.98;;;0.70;;
23628;SDS011;11991;57.150;-2.134;2023-03-20T00:54:43;0.65;;;0.55;;
23628;SDS011;11991;57.150;-2.134;2023-03-20T01:02:53;0.47;;;0.47;;
23628;SDS011;11991;57.150;-2.134;2023-03-20T01:05:23;1.00;;;0.68;;
23628;SDS011;11991;57.150;-2.134;2023-03-20T01:07:52;0.90;;;0.50;;
23628;SDS011;11991;57.150;-2.134;2023-03-20T01:10:20;1.17;;;0.60;;
23628;SDS011;11991;57.150;-2.134;2023-03-20T01:12:55;0.80;;;0.60;;
23628;SDS011;11991;57.150;-2.134;2023-03-20T01:15:26;0.55;;;0.55;;
23628;SDS011;11991;57.150;-2.134;2023-03-20T01:17:57;0.50;;;0.50;;
23628;SDS011;11991;57.150;-2.134;2023-03-20T01:20:26;2.75;;;0.65;;
23628;SDS011;11991;57.150;-2.134;2023-03-20T01:22:55;1.15;;;0.70;;
23628;SDS011;11991;57.150;-2.134;2023-03-20T01:25:22;1.23;;;0.70;;
23628;SDS011;11991;57.150;-2.134;2023-03-20T01:27:50;1.00;;;0.93;;
23628;SDS011;11991;57.150;-2.134;2023-03-20T01:30:24;2.00;;;0.90;;
23628;SDS011;11991;57.150;-2.134;2023-03-20T01:32:56;1.02;;;0.80;;
23628;SDS011;11991;57.150;-2.134;2023-03-20T01:35:25;0.77;;;0.77;;
23628;SDS011;11991;57.150;-2.134;2023-03-20T01:37:56;0.70;;;0.70;;
23628;SDS011;11991;57.150;-2.134;2023-03-20T01:42:54;0.70;;;0.70;;
23628;SDS011;11991;57.150;-2.134;2023-03-20T01:45:23;1.52;;;0.80;;
23628;SDS011;11991;57.150;-2.134;2023-03-20T01:47:57;0.77;;;0.73;;
23628;SDS011;11991;57.150;-2.134;2023-03-20T01:50:26;0.70;;;0.70;;
23628;SDS011;11991;57.150;-2.134;2023-03-20T01:53:19;1.08;;;1.00;;
23628;SDS011;11991;57.150;-2.134;2023-03-20T01:55:55;1.13;;;1.00;;
23628;SDS011;11991;57.150;-2.134;2023-03-20T01:58:35;1.60;;;0.80;;
23628;SDS011;11991;57.150;-2.134;2023-03-20T02:01:07;0.95;;;0.82;;
23628;SDS011;11991;57.150;-2.134;2023-03-20T02:03:39;1.20;;;0.80;;
23628;SDS011;11991;57.150;-2.134;2023-03-20T02:06:40;1.48;;;0.80;;
23628;SDS011;11991;57.150;-2.134;2023-03-20T02:09:13;1.08;;;0.98;;
23628;SDS011;11991;57.150;-2.134;2023-03-20T02:11:42;1.05;;;0.88;;
23628;SDS011;11991;57.150;-2.134;2023-03-20T02:14:12;0.70;;;0.70;;
23628;SDS011;11991;57.150;-2.134;2023-03-20T02:16:58;1.05;;;0.73;;
23628;SDS011;11991;57.150;-2.134;2023-03-20T02:27:50;1.13;;;1.02;;
23628;SDS011;11991;57.150;-2.134;2023-03-20T02:30:42;1.00;;;0.90;;
23628;SDS011;11991;57.150;-2.134;2023-03-20T02:33:51;0.73;;;0.63;;
23628;SDS011;11991;57.150;-2.134;2023-03-20T02:39:19;1.63;;;1.00;;
23628;SDS011;11991;57.150;-2.134;2023-03-20T02:44:45;1.65;;;0.90;;
23628;SDS011;11991;57.150;-2.134;2023-03-20T02:47:26;0.73;;;0.70;;
23628;SDS011;11991;57.150;-2.134;2023-03-20T02:58:11;1.20;;;0.80;;
23628;SDS011;11991;57.150;-2.134;2023-03-20T03:01:04;1.33;;;1.00;;
23628;SDS011;11991;57.150;-2.134;2023-03-20T03:03:38;1.17;;;0.73;;
23628;SDS011;11991;57.150;-2.134;2023-03-20T03:06:19;0.70;;;0.70;;
23628;SDS011;11991;57.150;-2.134;2023-03-20T03:08:54;0.80;;;0.80;;
23628;SDS011;11991;57.150;-2.134;2023-03-20T03:11:31;0.80;;;0.80;;
23628;SDS011;11991;57.150;-2.134;2023-03-20T03:14:01;0.93;;;0.93;;
23628;SDS011;11991;57.150;-2.134;2023-03-20T03:16:34;1.10;;;1.00;;
23628;SDS011;11991;57.150;-2.134;2023-03-20T03:19:07;0.88;;;0.70;;
23628;SDS011;11991;57.150;-2.134;2023-03-20T03:21:40;0.68;;;0.68;;
23628;SDS011;11991;57.150;-2.134;2023-03-20T03:24:19;1.63;;;0.95;;
23628;SDS011;11991;57.150;-2.134;2023-03-20T03:27:41;0.93;;;0.85;;
23628;SDS011;11991;57.150;-2.134;2023-03-20T03:32:44;1.15;;;0.80;;
23628;SDS011;11991;57.150;-2.134;2023-03-20T03:35:18;1.35;;;1.10;;
23628;SDS011;11991;57.150;-2.134;2023-03-20T03:37:50;0.70;;;0.70;;
23628;SDS011;11991;57.150;-2.134;2023-03-20T03:40:41;1.20;;;0.80;;
23628;SDS011;11991;57.150;-2.134;2023-03-20T03:43:16;1.73;;;0.82;;
23628;SDS011;11991;57.150;-2.134;2023-03-20T03:45:48;1.30;;;1.20;;
23628;SDS011;11991;57.150;-2.134;2023-03-20T03:48:26;1.92;;;1.33;;
23628;SDS011;11991;57.150;-2.134;2023-03-20T03:51:08;1.38;;;1.17;;
23628;SDS011;11991;57.150;-2.134;2023-03-20T03:53:52;1.98;;;0.90;;
23628;SDS011;11991;57.150;-2.134;2023-03-20T03:56:38;2.13;;;1.00;;
23628;SDS011;11991;57.150;-2.134;2023-03-20T03:59:10;1.27;;;0.90;;
23628;SDS011;11991;57.150;-2.134;2023-03-20T04:01:43;1.10;;;0.70;;
23628;SDS011;11991;57.150;-2.134;2023-03-20T04:04:12;1.10;;;1.00;;
23628;SDS011;11991;57.150;-2.134;2023-03-20T04:06:42;0.90;;;0.90;;
23628;SDS011;11991;57.150;-2.134;2023-03-20T04:09:09;0.88;;;0.82;;
23628;SDS011;11991;57.150;-2.134;2023-03-20T04:11:37;1.52;;;0.70;;
23628;SDS011;11991;57.150;-2.134;2023-03-20T04:14:06;1.33;;;1.10;;
23628;SDS011;11991;57.150;-2.134;2023-03-20T04:16:34;1.67;;;1.23;;
23628;SDS011;11991;57.150;-2.134;2023-03-20T04:19:01;1.55;;;1.10;;
23628;SDS011;11991;57.150;-2.134;2023-03-20T04:21:29;1.10;;;1.00;;
23628;SDS011;11991;57.150;-2.134;2023-03-20T04:23:56;2.28;;;1.25;;
23628;SDS011;11991;57.150;-2.134;2023-03-20T04:26:23;1.30;;;1.10;;
23628;SDS011;11991;57.150;-2.134;2023-03-20T04:28:51;1.00;;;1.00;;
23628;SDS011;11991;57.150;-2.134;2023-03-20T04:31:37;1.30;;;1.20;;
23628;SDS011;11991;57.150;-2.134;2023-03-20T04:34:23;1.85;;;1.17;;
23628;SDS011;11991;57.150;-2.134;2023-03-20T04:37:05;2.50;;;1.40;;
23628;SDS011;11991;57.150;-2.134;2023-03-20T04:39:53;1.30;;;1.20;;
23628;SDS011;11991;57.150;-2.134;2023-03-20T04:42:20;1.10;;;1.00;;
23628;SDS011;11991;57.150;-2.134;2023-03-20T04:44:48;1.58;;;1.40;;
23628;SDS011;11991;57.150;-2.134;2023-03-20T04:47:16;1.20;;;1.10;;
23628;SDS011;11991;57.150;-2.134;2023-03-20T04:49:43;1.90;;;1.17;;
23628;SDS011;11991;57.150;-2.134;2023-03-20T04:52:10;1.63;;;1.10;;
23628;SDS011;11991;57.150;-2.134;2023-03-20T04:54:40;1.13;;;1.02;;
23628;SDS011;11991;57.150;-2.134;2023-03-20T04:57:07;1.13;;;1.00;;
23628;SDS011;11991;57.150;-2.134;2023-03-20T04:59:35;1.20;;;1.10;;
23628;SDS011;11991;57.150;-2.134;2023-03-20T05:02:02;1.55;;;1.27;;
23628;SDS011;11991;57.150;-2.134;2023-03-20T05:04:30;1.48;;;1.30;;
23628;SDS011;11991;57.150;-2.134;2023-03-20T05:06:58;1.35;;;1.25;;
23628;SDS011;11991;57.150;-2.134;2023-03-20T05:09:33;1.92;;;1.42;;
23628;SDS011;11991;57.150;-2.134;2023-03-20T05:12:02;1.92;;;1.63;;
23628;SDS011;11991;57.150;-2.134;2023-03-20T05:14:49;1.77;;;1.52;;
23628;SDS011;11991;57.150;-2.134;2023-03-20T05:17:35;1.88;;;1.40;;
23628;SDS011;11991;57.150;-2.134;2023-03-20T05:20:21;1.40;;;1.30;;
23628;SDS011;11991;57.150;-2.134;2023-03-20T05:23:01;2.15;;;1.45;;
23628;SDS011;11991;57.150;-2.134;2023-03-20T05:25:50;1.98;;;1.35;;
23628;SDS011;11991;57.150;-2.134;2023-03-20T05:28:32;1.90;;;1.35;;
23628;SDS011;11991;57.150;-2.134;2023-03-20T05:31:11;1.30;;;1.20;;
23628;SDS011;11991;57.150;-2.134;2023-03-20T05:33:56;1.70;;;1.30;;
23628;SDS011;11991;57.150;-2.134;2023-03-20T05:36:46;2.47;;;1.63;;
23628;SDS011;11991;57.150;-2.134;2023-03-20T05:39:22;1.58;;;1.40;;
23628;SDS011;11991;57.150;-2.134;2023-03-20T05:42:10;2.60;;;1.80;;
23628;SDS011;11991;57.150;-2.134;2023-03-20T05:44:50;2.03;;;1.67;;
23628;SDS011;11991;57.150;-2.134;2023-03-20T05:47:36;1.67;;;1.40;;
23628;SDS011;11991;57.150;-2.134;2023-03-20T05:50:38;1.70;;;1.60;;
23628;SDS011;11991;57.150;-2.134;2023-03-20T05:53:35;2.42;;;1.80;;
23628;SDS011;11991;57.150;-2.134;2023-03-20T05:56:31;1.80;;;1.45;;
23628;SDS011;11991;57.150;-2.134;2023-03-20T05:59:19;1.40;;;1.30;;
23628;SDS011;11991;57.150;-2.134;2023-03-20T06:02:16;2.30;;;1.23;;
23628;SDS011;11991;57.150;-2.134;2023-03-20T06:04:53;3.67;;;2.35;;
23628;SDS011;11991;57.150;-2.134;2023-03-20T06:07:38;2.83;;;2.58;;
23628;SDS011;11991;57.150;-2.134;2023-03-20T06:10:10;2.80;;;1.85;;
23628;SDS011;11991;57.150;-2.134;2023-03-20T06:12:38;1.83;;;1.42;;
23628;SDS011;11991;57.150;-2.134;2023-03-20T06:15:05;2.42;;;1.77;;
23628;SDS011;11991;57.150;-2.134;2023-03-20T06:17:38;3.47;;;2.40;;
23628;SDS011;11991;57.150;-2.134;2023-03-20T06:20:05;3.75;;;1.98;;
23628;SDS011;11991;57.150;-2.134;2023-03-20T06:22:35;1.60;;;1.48;;
23628;SDS011;11991;57.150;-2.134;2023-03-20T06:25:03;1.40;;;1.00;;
23628;SDS011;11991;57.150;-2.134;2023-03-20T06:27:36;1.92;;;1.40;;
23628;SDS011;11991;57.150;-2.134;2023-03-20T06:30:03;2.30;;;1.97;;
23628;SDS011;11991;57.150;-2.134;2023-03-20T06:32:33;1.70;;;1.60;;
23628;SDS011;11991;57.150;-2.134;2023-03-20T06:35:03;2.60;;;2.00;;
23628;SDS011;11991;57.150;-2.134;2023-03-20T06:37:32;2.13;;;1.80;;
23628;SDS011;11991;57.150;-2.134;2023-03-20T06:40:05;3.75;;;2.05;;
23628;SDS011;11991;57.150;-2.134;2023-03-20T06:42:34;2.73;;;2.30;;
23628;SDS011;11991;57.150;-2.134;2023-03-20T06:45:03;2.80;;;2.17;;
23628;SDS011;11991;57.150;-2.134;2023-03-20T06:47:56;3.53;;;2.50;;
23628;SDS011;11991;57.150;-2.134;2023-03-20T06:50:23;4.53;;;2.60;;
23628;SDS011;11991;57.150;-2.134;2023-03-20T06:52:51;2.17;;;1.98;;
23628;SDS011;11991;57.150;-2.134;2023-03-20T06:55:35;3.63;;;2.50;;
23628;SDS011;11991;57.150;-2.134;2023-03-20T06:58:03;2.47;;;1.95;;
23628;SDS011;11991;57.150;-2.134;2023-03-20T07:00:32;1.63;;;1.52;;
23628;SDS011;11991;57.150;-2.134;2023-03-20T07:03:03;1.55;;;1.45;;
23628;SDS011;11991;57.150;-2.134;2023-03-20T07:05:30;2.47;;;2.00;;
23628;SDS011;11991;57.150;-2.134;2023-03-20T07:08:00;3.10;;;2.30;;
23628;SDS011;11991;57.150;-2.134;2023-03-20T07:10:27;2.50;;;2.15;;
23628;SDS011;11991;57.150;-2.134;2023-03-20T07:12:55;3.55;;;2.03;;
23628;SDS011;11991;57.150;-2.134;2023-03-20T07:15:22;5.40;;;3.95;;
23628;SDS011;11991;57.150;-2.134;2023-03-20T07:17:50;4.70;;;3.47;;
23628;SDS011;11991;57.150;-2.134;2023-03-20T07:20:19;5.80;;;4.25;;
23628;SDS011;11991;57.150;-2.134;2023-03-20T07:22:48;5.85;;;4.63;;
23628;SDS011;11991;57.150;-2.134;2023-03-20T07:25:24;3.80;;;2.72;;
23628;SDS011;11991;57.150;-2.134;2023-03-20T07:28:10;3.90;;;3.15;;
23628;SDS011;11991;57.150;-2.134;2023-03-20T07:30:41;4.72;;;2.85;;
23628;SDS011;11991;57.150;-2.134;2023-03-20T07:33:09;4.47;;;3.45;;
23628;SDS011;11991;57.150;-2.134;2023-03-20T07:35:37;6.90;;;4.22;;
23628;SDS011;11991;57.150;-2.134;2023-03-20T07:38:06;5.50;;;3.40;;
23628;SDS011;11991;57.150;-2.134;2023-03-20T07:40:43;4.30;;;2.97;;
23628;SDS011;11991;57.150;-2.134;2023-03-20T07:43:17;4.15;;;2.65;;
23628;SDS011;11991;57.150;-2.134;2023-03-20T07:46:22;2.53;;;2.13;;
23628;SDS011;11991;57.150;-2.134;2023-03-20T07:48:49;4.60;;;2.88;;
23628;SDS011;11991;57.150;-2.134;2023-03-20T07:51:16;2.97;;;2.60;;
23628;SDS011;11991;57.150;-2.134;2023-03-20T07:53:44;4.47;;;2.85;;
23628;SDS011;11991;57.150;-2.134;2023-03-20T07:56:11;2.88;;;2.13;;
23628;SDS011;11991;57.150;-2.134;2023-03-20T07:58:38;2.47;;;2.00;;
23628;SDS011;11991;57.150;-2.134;2023-03-20T08:01:05;2.58;;;1.55;;
23628;SDS011;11991;57.150;-2.134;2023-03-20T08:03:32;1.85;;;1.52;;
23628;SDS011;11991;57.150;-2.134;2023-03-20T08:06:00;3.70;;;2.47;;
23628;SDS011;11991;57.150;-2.134;2023-03-20T08:08:29;4.03;;;2.95;;
23628;SDS011;11991;57.150;-2.134;2023-03-20T08:10:57;2.47;;;2.20;;
23628;SDS011;11991;57.150;-2.134;2023-03-20T08:13:24;2.67;;;2.20;;
23628;SDS011;11991;57.150;-2.134;2023-03-20T08:15:51;2.50;;;2.17;;
23628;SDS011;11991;57.150;-2.134;2023-03-20T08:18:18;4.70;;;3.38;;
23628;SDS011;11991;57.150;-2.134;2023-03-20T08:20:47;3.13;;;2.20;;
23628;SDS011;11991;57.150;-2.134;2023-03-20T08:23:18;2.83;;;2.05;;
23628;SDS011;11991;57.150;-2.134;2023-03-20T08:25:49;2.08;;;1.45;;
23628;SDS011;11991;57.150;-2.134;2023-03-20T08:28:18;4.43;;;3.13;;
23628;SDS011;11991;57.150;-2.134;2023-03-20T08:30:46;1.70;;;1.45;;
23628;SDS011;11991;57.150;-2.134;2023-03-20T08:33:14;2.65;;;2.45;;
23628;SDS011;11991;57.150;-2.134;2023-03-20T08:35:43;4.28;;;3.03;;
23628;SDS011;11991;57.150;-2.134;2023-03-20T08:38:21;3.05;;;2.17;;
23628;SDS011;11991;57.150;-2.134;2023-03-20T08:40:48;3.60;;;2.15;;
23628;SDS011;11991;57.150;-2.134;2023-03-20T08:43:16;1.88;;;1.65;;
23628;SDS011;11991;57.150;-2.134;2023-03-20T08:45:43;2.30;;;1.88;;
23628;SDS011;11991;57.150;-2.134;2023-03-20T08:48:11;1.75;;;1.58;;
23628;SDS011;11991;57.150;-2.134;2023-03-20T08:50:38;2.40;;;1.80;;
23628;SDS011;11991;57.150;-2.134;2023-03-20T08:53:05;2.28;;;1.70;;
23628;SDS011;11991;57.150;-2.134;2023-03-20T08:55:33;1.50;;;1.40;;
23628;SDS011;11991;57.150;-2.134;2023-03-20T08:58:00;1.50;;;1.40;;
23628;SDS011;11991;57.150;-2.134;2023-03-20T09:00:28;1.98;;;1.42;;
23628;SDS011;11991;57.150;-2.134;2023-03-20T09:02:55;1.58;;;1.35;;
23628;SDS011;11991;57.150;-2.134;2023-03-20T09:05:22;1.27;;;1.17;;
23628;SDS011;11991;57.150;-2.134;2023-03-20T09:07:49;1.50;;;1.00;;
23628;SDS011;11991;57.150;-2.134;2023-03-20T09:10:16;1.95;;;1.52;;
23628;SDS011;11991;57.150;-2.134;2023-03-20T09:12:44;1.83;;;1.48;;
23628;SDS011;11991;57.150;-2.134;2023-03-20T09:15:12;0.82;;;0.80;;
23628;SDS011;11991;57.150;-2.134;2023-03-20T09:17:39;2.38;;;1.80;;
23628;SDS011;11991;57.150;-2.134;2023-03-20T09:20:07;2.28;;;1.70;;
23628;SDS011;11991;57.150;-2.134;2023-03-20T09:22:35;1.05;;;0.95;;
23628;SDS011;11991;57.150;-2.134;2023-03-20T09:25:02;2.38;;;1.30;;
23628;SDS011;11991;57.150;-2.134;2023-03-20T09:27:30;1.70;;;1.33;;
23628;SDS011;11991;57.150;-2.134;2023-03-20T09:29:57;2.60;;;1.70;;
23628;SDS011;11991;57.150;-2.134;2023-03-20T09:32:24;1.63;;;1.20;;
23628;SDS011;11991;57.150;-2.134;2023-03-20T09:34:51;1.30;;;1.02;;
23628;SDS011;11991;57.150;-2.134;2023-03-20T09:37:18;1.55;;;1.35;;
23628;SDS011;11991;57.150;-2.134;2023-03-20T09:39:46;1.60;;;1.33;;
23628;SDS011;11991;57.150;-2.134;2023-03-20T09:48:21;1.20;;;0.90;;
23628;SDS011;11991;57.150;-2.134;2023-03-20T09:54:05;2.78;;;1.40;;
23628;SDS011;11991;57.150;-2.134;2023-03-20T09:56:41;1.00;;;0.95;;
23628;SDS011;11991;57.150;-2.134;2023-03-20T09:59:31;1.30;;;1.17;;
23628;SDS011;11991;57.150;-2.134;2023-03-20T10:02:05;1.38;;;1.13;;
23628;SDS011;11991;57.150;-2.134;2023-03-20T10:04:52;1.45;;;1.13;;
23628;SDS011;11991;57.150;-2.134;2023-03-20T10:07:25;0.80;;;0.80;;
23628;SDS011;11991;57.150;-2.134;2023-03-20T10:09:57;1.30;;;1.05;;
23628;SDS011;11991;57.150;-2.134;2023-03-20T10:12:47;1.13;;;0.98;;
23628;SDS011;11991;57.150;-2.134;2023-03-20T10:18:14;2.58;;;1.00;;
23628;SDS011;11991;57.150;-2.134;2023-03-20T10:24:11;0.80;;;0.70;;
23628;SDS011;11991;57.150;-2.134;2023-03-20T10:40:15;1.55;;;1.15;;
23628;SDS011;11991;57.150;-2.134;2023-03-20T10:43:15;0.73;;;0.65;;
23628;SDS011;11991;57.150;-2.134;2023-03-20T10:45:51;2.80;;;1.15;;
23628;SDS011;11991;57.150;-2.134;2023-03-20T10:55:37;1.23;;;0.95;;
23628;SDS011;11991;57.150;-2.134;2023-03-20T10:58:17;1.73;;;0.88;;
23628;SDS011;11991;57.150;-2.134;2023-03-20T11:00:49;1.08;;;0.98;;
23628;SDS011;11991;57.150;-2.134;2023-03-20T11:03:21;2.22;;;1.10;;
23628;SDS011;11991;57.150;-2.134;2023-03-20T11:05:55;1.50;;;0.90;;
23628;SDS011;11991;57.150;-2.134;2023-03-20T11:08:37;0.95;;;0.82;;
23628;SDS011;11991;57.150;-2.134;2023-03-20T11:11:12;1.23;;;0.98;;
23628;SDS011;11991;57.150;-2.134;2023-03-20T11:13:42;1.40;;;1.00;;
23628;SDS011;11991;57.150;-2.134;2023-03-20T11:16:18;1.27;;;0.90;;
23628;SDS011;11991;57.150;-2.134;2023-03-20T11:18:47;1.23;;;0.82;;
23628;SDS011;11991;57.150;-2.134;2023-03-20T11:21:28;1.10;;;1.00;;
23628;SDS011;11991;57.150;-2.134;2023-03-20T11:23:57;0.93;;;0.88;;
23628;SDS011;11991;57.150;-2.134;2023-03-20T11:26:51;1.45;;;0.70;;
23628;SDS011;11991;57.150;-2.134;2023-03-20T11:29:33;0.70;;;0.70;;
23628;SDS011;11991;57.150;-2.134;2023-03-20T11:32:15;1.38;;;0.75;;
23628;SDS011;11991;57.150;-2.134;2023-03-20T11:35:44;0.73;;;0.60;;
23628;SDS011;11991;57.150;-2.134;2023-03-20T11:38:19;2.08;;;0.80;;
23628;SDS011;11991;57.150;-2.134;2023-03-20T11:40:47;1.05;;;0.90;;
23628;SDS011;11991;57.150;-2.134;2023-03-20T11:43:19;0.75;;;0.75;;
23628;SDS011;11991;57.150;-2.134;2023-03-20T11:45:55;0.60;;;0.60;;
23628;SDS011;11991;57.150;-2.134;2023-03-20T11:48:38;0.93;;;0.88;;
23628;SDS011;11991;57.150;-2.134;2023-03-20T11:51:07;0.80;;;0.80;;
23628;SDS011;11991;57.150;-2.134;2023-03-20T11:56:14;0.47;;;0.45;;
23628;SDS011;11991;57.150;-2.134;2023-03-20T11:58:57;0.70;;;0.70;;
23628;SDS011;11991;57.150;-2.134;2023-03-20T12:01:45;1.85;;;0.82;;
23628;SDS011;11991;57.150;-2.134;2023-03-20T12:04:16;0.70;;;0.70;;
23628;SDS011;11991;57.150;-2.134;2023-03-20T12:06:46;1.05;;;0.57;;
23628;SDS011;11991;57.150;-2.134;2023-03-20T12:09:23;0.80;;;0.80;;
23628;SDS011;11991;57.150;-2.134;2023-03-20T12:12:02;1.15;;;0.63;;
23628;SDS011;11991;57.150;-2.134;2023-03-20T12:23:09;0.80;;;0.52;;
23628;SDS011;11991;57.150;-2.134;2023-03-20T12:28:24;0.57;;;0.57;;
23628;SDS011;11991;57.150;-2.134;2023-03-20T12:31:19;0.95;;;0.80;;
23628;SDS011;11991;57.150;-2.134;2023-03-20T12:34:11;0.45;;;0.45;;
23628;SDS011;11991;57.150;-2.134;2023-03-20T12:36:47;1.17;;;0.57;;
23628;SDS011;11991;57.150;-2.134;2023-03-20T12:39:30;0.90;;;0.63;;
23628;SDS011;11991;57.150;-2.134;2023-03-20T12:51:16;0.50;;;0.50;;
23628;SDS011;11991;57.150;-2.134;2023-03-20T12:54:30;1.17;;;0.77;;
23628;SDS011;11991;57.150;-2.134;2023-03-20T13:02:27;0.60;;;0.60;;
23628;SDS011;11991;57.150;-2.134;2023-03-20T13:04:58;0.57;;;0.57;;
23628;SDS011;11991;57.150;-2.134;2023-03-20T13:07:40;0.90;;;0.60;;
23628;SDS011;11991;57.150;-2.134;2023-03-20T13:15:22;1.02;;;0.70;;
23628;SDS011;11991;57.150;-2.134;2023-03-20T13:18:21;1.50;;;0.70;;
23628;SDS011;11991;57.150;-2.134;2023-03-20T13:21:11;0.60;;;0.60;;
23628;SDS011;11991;57.150;-2.134;2023-03-20T13:29:40;0.50;;;0.50;;
23628;SDS011;11991;57.150;-2.134;2023-03-20T13:32:32;0.50;;;0.50;;
23628;SDS011;11991;57.150;-2.134;2023-03-20T13:35:16;1.25;;;0.68;;
23628;SDS011;11991;57.150;-2.134;2023-03-20T13:37:47;0.43;;;0.43;;
23628;SDS011;11991;57.150;-2.134;2023-03-20T13:45:46;0.50;;;0.50;;
23628;SDS011;11991;57.150;-2.134;2023-03-20T13:48:22;1.20;;;0.50;;
23628;SDS011;11991;57.150;-2.134;2023-03-20T13:56:56;1.77;;;1.00;;
23628;SDS011;11991;57.150;-2.134;2023-03-20T13:59:42;0.55;;;0.55;;
23628;SDS011;11991;57.150;-2.134;2023-03-20T14:05:37;1.30;;;0.60;;
23628;SDS011;11991;57.150;-2.134;2023-03-20T14:13:48;1.02;;;0.90;;
23628;SDS011;11991;57.150;-2.134;2023-03-20T14:16:42;3.55;;;1.25;;
23628;SDS011;11991;57.150;-2.134;2023-03-20T14:21:47;2.85;;;1.50;;
23628;SDS011;11991;57.150;-2.134;2023-03-20T14:24:18;1.67;;;1.20;;
23628;SDS011;11991;57.150;-2.134;2023-03-20T14:26:48;1.23;;;0.80;;
23628;SDS011;11991;57.150;-2.134;2023-03-20T14:29:19;0.60;;;0.60;;
23628;SDS011;11991;57.150;-2.134;2023-03-20T14:34:44;0.60;;;0.60;;
23628;SDS011;11991;57.150;-2.134;2023-03-20T14:37:35;2.10;;;1.23;;
23628;SDS011;11991;57.150;-2.134;2023-03-20T14:40:05;0.73;;;0.70;;
23628;SDS011;11991;57.150;-2.134;2023-03-20T14:42:39;1.83;;;1.25;;
23628;SDS011;11991;57.150;-2.134;2023-03-20T14:51:11;2.20;;;0.93;;
23628;SDS011;11991;57.150;-2.134;2023-03-20T14:54:43;1.45;;;1.13;;
23628;SDS011;11991;57.150;-2.134;2023-03-20T14:56:48;1.77;;;0.90;;
23628;SDS011;11991;57.150;-2.134;2023-03-20T14:59:19;2.25;;;1.02;;
23628;SDS011;11991;57.150;-2.134;2023-03-20T15:06:54;1.55;;;0.93;;
23628;SDS011;11991;57.150;-2.134;2023-03-20T15:09:43;2.60;;;1.48;;
23628;SDS011;11991;57.150;-2.134;2023-03-20T15:12:13;1.00;;;0.80;;
23628;SDS011;11991;57.150;-2.134;2023-03-20T15:14:46;2.33;;;1.08;;
23628;SDS011;11991;57.150;-2.134;2023-03-20T15:17:34;1.48;;;1.02;;
23628;SDS011;11991;57.150;-2.134;2023-03-20T15:20:11;0.75;;;0.70;;
23628;SDS011;11991;57.150;-2.134;2023-03-20T15:22:51;1.65;;;0.82;;
23628;SDS011;11991;57.150;-2.134;2023-03-20T15:25:26;1.35;;;1.23;;
23628;SDS011;11991;57.150;-2.134;2023-03-20T15:28:07;1.02;;;0.90;;
23628;SDS011;11991;57.150;-2.134;2023-03-20T15:30:45;2.05;;;1.00;;
23628;SDS011;11991;57.150;-2.134;2023-03-20T15:33:16;2.40;;;1.00;;
23628;SDS011;11991;57.150;-2.134;2023-03-20T15:35:50;1.25;;;1.10;;
23628;SDS011;11991;57.150;-2.134;2023-03-20T15:38:17;1.20;;;1.02;;
23628;SDS011;11991;57.150;-2.134;2023-03-20T15:40:45;2.40;;;1.10;;
23628;SDS011;11991;57.150;-2.134;2023-03-20T15:43:18;2.55;;;1.42;;
23628;SDS011;11991;57.150;-2.134;2023-03-20T15:45:53;2.22;;;1.17;;
23628;SDS011;11991;57.150;-2.134;2023-03-20T15:48:48;4.07;;;1.80;;
23628;SDS011;11991;57.150;-2.134;2023-03-20T15:51:16;2.22;;;1.33;;
23628;SDS011;11991;57.150;-2.134;2023-03-20T15:53:46;2.83;;;1.40;;
23628;SDS011;11991;57.150;-2.134;2023-03-20T15:56:15;3.70;;;2.15;;
23628;SDS011;11991;57.150;-2.134;2023-03-20T15:58:45;3.33;;;1.58;;
23628;SDS011;11991;57.150;-2.134;2023-03-20T16:01:18;2.05;;;1.33;;
23628;SDS011;11991;57.150;-2.134;2023-03-20T16:03:47;1.98;;;1.48;;
23628;SDS011;11991;57.150;-2.134;2023-03-20T16:06:19;1.65;;;1.40;;
23628;SDS011;11991;57.150;-2.134;2023-03-20T16:08:57;2.92;;;1.77;;
23628;SDS011;11991;57.150;-2.134;2023-03-20T16:11:36;6.07;;;3.67;;
23628;SDS011;11991;57.150;-2.134;2023-03-20T16:14:05;7.80;;;3.70;;
23628;SDS011;11991;57.150;-2.134;2023-03-20T16:16:37;6.95;;;4.72;;
23628;SDS011;11991;57.150;-2.134;2023-03-20T16:19:05;2.33;;;1.98;;
23628;SDS011;11991;57.150;-2.134;2023-03-20T16:21:34;2.83;;;1.45;;
23628;SDS011;11991;57.150;-2.134;2023-03-20T16:24:05;2.35;;;2.13;;
23628;SDS011;11991;57.150;-2.134;2023-03-20T16:26:39;2.58;;;1.60;;
23628;SDS011;11991;57.150;-2.134;2023-03-20T16:29:08;1.85;;;1.70;;
23628;SDS011;11991;57.150;-2.134;2023-03-20T16:31:57;1.40;;;1.20;;
23628;SDS011;11991;57.150;-2.134;2023-03-20T16:34:31;4.22;;;2.05;;
23628;SDS011;11991;57.150;-2.134;2023-03-20T16:37:05;2.83;;;1.90;;
23628;SDS011;11991;57.150;-2.134;2023-03-20T16:39:34;5.15;;;2.35;;
23628;SDS011;11991;57.150;-2.134;2023-03-20T16:44:39;2.28;;;1.45;;
23628;SDS011;11991;57.150;-2.134;2023-03-20T16:47:15;1.92;;;1.40;;
23628;SDS011;11991;57.150;-2.134;2023-03-20T16:49:48;1.70;;;1.55;;
23628;SDS011;11991;57.150;-2.134;2023-03-20T16:52:20;1.58;;;1.40;;
23628;SDS011;11991;57.150;-2.134;2023-03-20T16:54:56;1.00;;;0.95;;
23628;SDS011;11991;57.150;-2.134;2023-03-20T16:57:26;2.00;;;1.45;;
23628;SDS011;11991;57.150;-2.134;2023-03-20T17:00:06;4.10;;;2.83;;
23628;SDS011;11991;57.150;-2.134;2023-03-20T17:02:48;2.20;;;1.35;;
23628;SDS011;11991;57.150;-2.134;2023-03-20T17:05:18;1.70;;;1.20;;
23628;SDS011;11991;57.150;-2.134;2023-03-20T17:07:50;2.72;;;1.67;;
23628;SDS011;11991;57.150;-2.134;2023-03-20T17:10:30;1.42;;;1.30;;
23628;SDS011;11991;57.150;-2.134;2023-03-20T17:12:57;1.17;;;1.08;;
23628;SDS011;11991;57.150;-2.134;2023-03-20T17:15:24;1.83;;;1.50;;
23628;SDS011;11991;57.150;-2.134;2023-03-20T17:17:52;1.83;;;1.50;;
23628;SDS011;11991;57.150;-2.134;2023-03-20T17:20:21;1.70;;;1.60;;
23628;SDS011;11991;57.150;-2.134;2023-03-20T17:22:50;4.05;;;2.58;;
23628;SDS011;11991;57.150;-2.134;2023-03-20T17:25:19;2.42;;;1.65;;
23628;SDS011;11991;57.150;-2.134;2023-03-20T17:27:46;3.88;;;1.75;;
23628;SDS011;11991;57.150;-2.134;2023-03-20T17:32:43;4.22;;;3.00;;
23628;SDS011;11991;57.150;-2.134;2023-03-20T17:35:11;2.13;;;1.63;;
23628;SDS011;11991;57.150;-2.134;2023-03-20T17:37:39;3.17;;;2.10;;
23628;SDS011;11991;57.150;-2.134;2023-03-20T17:40:09;2.63;;;2.05;;
23628;SDS011;11991;57.150;-2.134;2023-03-20T17:42:46;2.05;;;1.60;;
23628;SDS011;11991;57.150;-2.134;2023-03-20T17:45:14;2.63;;;1.95;;
23628;SDS011;11991;57.150;-2.134;2023-03-20T17:47:46;1.75;;;1.30;;